sensor_id;sensor_type;location;lat;lon;timestamp;P1;durP1;ratioP1;P2;durP2;ratioP2
10761;SDS011;5433;50.862;4.320;2022-11-20T00:00:47;41.20;;;21.02;;
10761;SDS011;5433;50.862;4.320;2022-11-20T00:03:14;39.28;;;22.02;;
10761;SDS011;5433;50.862;4.320;2022-11-20T00:05:40;39.80;;;22.27;;
10761;SDS011;5433;50.862;4.320;2022-11-20T00:08:06;41.47;;;22.88;;
10761;SDS011;5433;50.862;4.320;2022-11-20T00:10:32;39.58;;;20.90;;
10761;SDS011;5433;50.862;4.320;2022-11-20T00:13:01;42.15;;;21.52;;
10761;SDS011;5433;50.862;4.320;2022-11-20T00:15:27;40.80;;;22.50;;
10761;SDS011;5433;50.862;4.320;2022-11-20T00:17:53;41.83;;;22.20;;
10761;SDS011;5433;50.862;4.320;2022-11-20T00:20:19;36.92;;;21.85;;
10761;SDS011;5433;50.862;4.320;2022-11-20T00:22:45;39.75;;;23.45;;
10761;SDS011;5433;50.862;4.320;2022-11-20T00:25:11;44.80;;;23.75;;
10761;SDS011;5433;50.862;4.320;2022-11-20T00:27:37;339.52;;;106.82;;
10761;SDS011;5433;50.862;4.320;2022-11-20T00:30:04;40.35;;;22.58;;
10761;SDS011;5433;50.862;4.320;2022-11-20T00:32:30;42.25;;;23.60;;
10761;SDS011;5433;50.862;4.320;2022-11-20T00:34:56;44.45;;;24.60;;
10761;SDS011;5433;50.862;4.320;2022-11-20T00:37:22;155.50;;;59.67;;
10761;SDS011;5433;50.862;4.320;2022-11-20T00:39:48;49.50;;;26.48;;
10761;SDS011;5433;50.862;4.320;2022-11-20T00:42:14;174.43;;;64.63;;
10761;SDS011;5433;50.862;4.320;2022-11-20T00:44:40;181.60;;;65.15;;
10761;SDS011;5433;50.862;4.320;2022-11-20T00:47:06;387.13;;;145.85;;
10761;SDS011;5433;50.862;4.320;2022-11-20T00:49:32;285.13;;;105.53;;
10761;SDS011;5433;50.862;4.320;2022-11-20T00:51:58;48.38;;;24.63;;
10761;SDS011;5433;50.862;4.320;2022-11-20T00:54:24;46.05;;;25.40;;
10761;SDS011;5433;50.862;4.320;2022-11-20T00:56:52;49.88;;;25.83;;
10761;SDS011;5433;50.862;4.320;2022-11-20T00:59:18;46.40;;;25.30;;
10761;SDS011;5433;50.862;4.320;2022-11-20T01:01:44;41.78;;;24.35;;
10761;SDS011;5433;50.862;4.320;2022-11-20T01:04:10;43.75;;;24.15;;
10761;SDS011;5433;50.862;4.320;2022-11-20T01:06:37;43.35;;;24.45;;
10761;SDS011;5433;50.862;4.320;2022-11-20T01:09:04;43.90;;;23.30;;
10761;SDS011;5433;50.862;4.320;2022-11-20T01:11:32;42.22;;;23.95;;
10761;SDS011;5433;50.862;4.320;2022-11-20T01:13:59;36.42;;;23.23;;
10761;SDS011;5433;50.862;4.320;2022-11-20T01:16:26;42.05;;;24.63;;
10761;SDS011;5433;50.862;4.320;2022-11-20T01:18:53;40.63;;;22.13;;
10761;SDS011;5433;50.862;4.320;2022-11-20T01:21:20;46.40;;;23.60;;
10761;SDS011;5433;50.862;4.320;2022-11-20T01:23:47;47.80;;;24.02;;
10761;SDS011;5433;50.862;4.320;2022-11-20T01:26:18;42.50;;;23.75;;
10761;SDS011;5433;50.862;4.320;2022-11-20T01:28:44;40.40;;;23.55;;
10761;SDS011;5433;50.862;4.320;2022-11-20T01:31:14;41.28;;;23.98;;
10761;SDS011;5433;50.862;4.320;2022-11-20T01:33:40;45.90;;;24.35;;
10761;SDS011;5433;50.862;4.320;2022-11-20T01:36:07;44.33;;;24.90;;
10761;SDS011;5433;50.862;4.320;2022-11-20T01:38:33;48.97;;;24.70;;
10761;SDS011;5433;50.862;4.320;2022-11-20T01:40:59;44.75;;;25.80;;
10761;SDS011;5433;50.862;4.320;2022-11-20T01:43:25;44.05;;;25.40;;
10761;SDS011;5433;50.862;4.320;2022-11-20T01:49:01;40.28;;;24.58;;
10761;SDS011;5433;50.862;4.320;2022-11-20T01:53:58;40.88;;;24.00;;
10761;SDS011;5433;50.862;4.320;2022-11-20T01:59:29;42.50;;;24.40;;
10761;SDS011;5433;50.862;4.320;2022-11-20T02:01:55;42.05;;;22.88;;
10761;SDS011;5433;50.862;4.320;2022-11-20T02:04:21;40.97;;;23.75;;
10761;SDS011;5433;50.862;4.320;2022-11-20T02:06:49;41.65;;;23.63;;
10761;SDS011;5433;50.862;4.320;2022-11-20T02:09:16;43.88;;;25.45;;
10761;SDS011;5433;50.862;4.320;2022-11-20T02:11:42;44.58;;;24.50;;
10761;SDS011;5433;50.862;4.320;2022-11-20T02:14:08;38.20;;;23.48;;
10761;SDS011;5433;50.862;4.320;2022-11-20T02:16:39;39.80;;;24.05;;
10761;SDS011;5433;50.862;4.320;2022-11-20T02:19:09;41.95;;;23.40;;
10761;SDS011;5433;50.862;4.320;2022-11-20T02:21:45;43.10;;;23.88;;
10761;SDS011;5433;50.862;4.320;2022-11-20T02:24:19;39.90;;;22.88;;
10761;SDS011;5433;50.862;4.320;2022-11-20T02:26:47;39.22;;;23.90;;
10761;SDS011;5433;50.862;4.320;2022-11-20T02:29:15;39.60;;;23.13;;
10761;SDS011;5433;50.862;4.320;2022-11-20T02:31:42;38.55;;;22.65;;
10761;SDS011;5433;50.862;4.320;2022-11-20T02:34:09;39.10;;;21.30;;
10761;SDS011;5433;50.862;4.320;2022-11-20T02:36:35;39.58;;;22.48;;
10761;SDS011;5433;50.862;4.320;2022-11-20T02:39:03;40.85;;;23.73;;
10761;SDS011;5433;50.862;4.320;2022-11-20T02:41:33;37.25;;;22.17;;
10761;SDS011;5433;50.862;4.320;2022-11-20T02:43:59;40.65;;;22.88;;
10761;SDS011;5433;50.862;4.320;2022-11-20T02:46:25;38.38;;;21.80;;
10761;SDS011;5433;50.862;4.320;2022-11-20T02:48:51;39.50;;;22.75;;
10761;SDS011;5433;50.862;4.320;2022-11-20T02:51:17;44.35;;;23.65;;
10761;SDS011;5433;50.862;4.320;2022-11-20T02:53:43;40.15;;;23.08;;
10761;SDS011;5433;50.862;4.320;2022-11-20T02:56:09;40.92;;;23.10;;
10761;SDS011;5433;50.862;4.320;2022-11-20T02:58:36;40.67;;;22.15;;
10761;SDS011;5433;50.862;4.320;2022-11-20T03:01:02;39.35;;;22.13;;
10761;SDS011;5433;50.862;4.320;2022-11-20T03:03:28;39.80;;;22.65;;
10761;SDS011;5433;50.862;4.320;2022-11-20T03:05:54;45.20;;;22.73;;
10761;SDS011;5433;50.862;4.320;2022-11-20T03:08:20;38.72;;;21.63;;
10761;SDS011;5433;50.862;4.320;2022-11-20T03:10:46;39.67;;;21.88;;
10761;SDS011;5433;50.862;4.320;2022-11-20T03:13:12;39.45;;;20.75;;
10761;SDS011;5433;50.862;4.320;2022-11-20T03:15:41;38.55;;;21.20;;
10761;SDS011;5433;50.862;4.320;2022-11-20T03:18:07;40.72;;;21.98;;
10761;SDS011;5433;50.862;4.320;2022-11-20T03:20:33;38.83;;;21.10;;
10761;SDS011;5433;50.862;4.320;2022-11-20T03:23:01;38.30;;;21.50;;
10761;SDS011;5433;50.862;4.320;2022-11-20T03:25:27;39.03;;;20.85;;
10761;SDS011;5433;50.862;4.320;2022-11-20T03:27:54;39.95;;;20.85;;
10761;SDS011;5433;50.862;4.320;2022-11-20T03:30:20;37.92;;;21.05;;
10761;SDS011;5433;50.862;4.320;2022-11-20T03:32:46;39.88;;;20.95;;
10761;SDS011;5433;50.862;4.320;2022-11-20T03:35:12;39.88;;;21.40;;
10761;SDS011;5433;50.862;4.320;2022-11-20T03:37:38;42.65;;;21.40;;
10761;SDS011;5433;50.862;4.320;2022-11-20T03:40:04;39.72;;;20.33;;
10761;SDS011;5433;50.862;4.320;2022-11-20T03:42:30;36.38;;;20.42;;
10761;SDS011;5433;50.862;4.320;2022-11-20T03:45:16;36.70;;;19.38;;
10761;SDS011;5433;50.862;4.320;2022-11-20T03:47:42;39.47;;;20.88;;
10761;SDS011;5433;50.862;4.320;2022-11-20T03:50:09;38.67;;;20.63;;
10761;SDS011;5433;50.862;4.320;2022-11-20T03:52:35;38.95;;;20.33;;
10761;SDS011;5433;50.862;4.320;2022-11-20T03:55:01;36.85;;;19.70;;
10761;SDS011;5433;50.862;4.320;2022-11-20T03:57:27;38.40;;;19.85;;
10761;SDS011;5433;50.862;4.320;2022-11-20T03:59:53;35.13;;;19.02;;
10761;SDS011;5433;50.862;4.320;2022-11-20T04:02:19;35.28;;;19.58;;
10761;SDS011;5433;50.862;4.320;2022-11-20T04:04:45;40.80;;;21.02;;
10761;SDS011;5433;50.862;4.320;2022-11-20T04:07:11;35.10;;;19.60;;
10761;SDS011;5433;50.862;4.320;2022-11-20T04:09:37;35.33;;;19.63;;
10761;SDS011;5433;50.862;4.320;2022-11-20T04:12:03;34.90;;;20.05;;
10761;SDS011;5433;50.862;4.320;2022-11-20T04:14:29;36.90;;;20.13;;
10761;SDS011;5433;50.862;4.320;2022-11-20T04:16:55;38.10;;;20.38;;
10761;SDS011;5433;50.862;4.320;2022-11-20T04:19:21;37.72;;;20.38;;
10761;SDS011;5433;50.862;4.320;2022-11-20T04:21:47;38.03;;;20.48;;
10761;SDS011;5433;50.862;4.320;2022-11-20T04:24:13;40.47;;;20.25;;
10761;SDS011;5433;50.862;4.320;2022-11-20T04:26:39;41.33;;;20.92;;
10761;SDS011;5433;50.862;4.320;2022-11-20T04:29:05;42.22;;;21.15;;
10761;SDS011;5433;50.862;4.320;2022-11-20T04:31:32;41.22;;;21.35;;
10761;SDS011;5433;50.862;4.320;2022-11-20T04:34:02;38.58;;;20.33;;
10761;SDS011;5433;50.862;4.320;2022-11-20T04:36:29;42.10;;;21.17;;
10761;SDS011;5433;50.862;4.320;2022-11-20T04:38:56;42.53;;;21.50;;
10761;SDS011;5433;50.862;4.320;2022-11-20T04:41:24;45.33;;;21.30;;
10761;SDS011;5433;50.862;4.320;2022-11-20T04:43:51;46.33;;;22.10;;
10761;SDS011;5433;50.862;4.320;2022-11-20T04:46:18;45.67;;;22.45;;
10761;SDS011;5433;50.862;4.320;2022-11-20T04:48:45;46.10;;;21.65;;
10761;SDS011;5433;50.862;4.320;2022-11-20T04:51:11;49.40;;;22.90;;
10761;SDS011;5433;50.862;4.320;2022-11-20T04:53:37;48.47;;;22.65;;
10761;SDS011;5433;50.862;4.320;2022-11-20T04:56:04;46.53;;;21.42;;
10761;SDS011;5433;50.862;4.320;2022-11-20T04:58:31;43.95;;;21.35;;
10761;SDS011;5433;50.862;4.320;2022-11-20T05:01:04;46.05;;;21.50;;
10761;SDS011;5433;50.862;4.320;2022-11-20T05:03:31;43.60;;;21.63;;
10761;SDS011;5433;50.862;4.320;2022-11-20T05:06:00;46.38;;;22.23;;
10761;SDS011;5433;50.862;4.320;2022-11-20T05:08:27;45.80;;;21.88;;
10761;SDS011;5433;50.862;4.320;2022-11-20T05:10:53;47.20;;;21.88;;
10761;SDS011;5433;50.862;4.320;2022-11-20T05:13:19;44.20;;;21.55;;
10761;SDS011;5433;50.862;4.320;2022-11-20T05:15:45;45.63;;;21.77;;
10761;SDS011;5433;50.862;4.320;2022-11-20T05:18:11;46.88;;;22.10;;
10761;SDS011;5433;50.862;4.320;2022-11-20T05:20:37;49.95;;;22.45;;
10761;SDS011;5433;50.862;4.320;2022-11-20T05:23:03;48.58;;;23.05;;
10761;SDS011;5433;50.862;4.320;2022-11-20T05:25:29;45.78;;;22.48;;
10761;SDS011;5433;50.862;4.320;2022-11-20T05:27:55;49.00;;;22.05;;
10761;SDS011;5433;50.862;4.320;2022-11-20T05:30:21;52.30;;;22.95;;
10761;SDS011;5433;50.862;4.320;2022-11-20T05:32:47;49.42;;;23.08;;
10761;SDS011;5433;50.862;4.320;2022-11-20T05:35:13;46.63;;;22.33;;
10761;SDS011;5433;50.862;4.320;2022-11-20T05:37:39;50.38;;;23.52;;
10761;SDS011;5433;50.862;4.320;2022-11-20T05:40:05;50.50;;;23.27;;
10761;SDS011;5433;50.862;4.320;2022-11-20T05:42:31;48.13;;;23.23;;
10761;SDS011;5433;50.862;4.320;2022-11-20T05:44:58;48.45;;;22.83;;
10761;SDS011;5433;50.862;4.320;2022-11-20T05:47:24;48.00;;;23.02;;
10761;SDS011;5433;50.862;4.320;2022-11-20T05:49:50;52.95;;;23.70;;
10761;SDS011;5433;50.862;4.320;2022-11-20T05:52:16;51.05;;;24.02;;
10761;SDS011;5433;50.862;4.320;2022-11-20T05:54:42;55.17;;;23.58;;
10761;SDS011;5433;50.862;4.320;2022-11-20T05:57:08;53.63;;;24.45;;
10761;SDS011;5433;50.862;4.320;2022-11-20T05:59:34;53.55;;;23.15;;
10761;SDS011;5433;50.862;4.320;2022-11-20T06:02:02;56.00;;;23.15;;
10761;SDS011;5433;50.862;4.320;2022-11-20T06:04:28;48.92;;;23.10;;
10761;SDS011;5433;50.862;4.320;2022-11-20T06:06:54;57.33;;;24.20;;
10761;SDS011;5433;50.862;4.320;2022-11-20T06:09:20;59.15;;;24.08;;
10761;SDS011;5433;50.862;4.320;2022-11-20T06:11:46;55.80;;;24.15;;
10761;SDS011;5433;50.862;4.320;2022-11-20T06:14:14;64.47;;;25.70;;
10761;SDS011;5433;50.862;4.320;2022-11-20T06:16:40;57.20;;;22.85;;
10761;SDS011;5433;50.862;4.320;2022-11-20T06:19:06;61.10;;;24.85;;
10761;SDS011;5433;50.862;4.320;2022-11-20T06:21:32;57.65;;;23.42;;
10761;SDS011;5433;50.862;4.320;2022-11-20T06:23:58;59.33;;;23.40;;
10761;SDS011;5433;50.862;4.320;2022-11-20T06:26:25;51.72;;;22.90;;
10761;SDS011;5433;50.862;4.320;2022-11-20T06:28:52;57.42;;;23.63;;
10761;SDS011;5433;50.862;4.320;2022-11-20T06:31:19;57.92;;;23.75;;
10761;SDS011;5433;50.862;4.320;2022-11-20T06:33:45;57.72;;;24.00;;
10761;SDS011;5433;50.862;4.320;2022-11-20T06:36:12;53.03;;;23.75;;
10761;SDS011;5433;50.862;4.320;2022-11-20T06:38:38;54.15;;;22.33;;
10761;SDS011;5433;50.862;4.320;2022-11-20T06:41:14;52.03;;;22.63;;
10761;SDS011;5433;50.862;4.320;2022-11-20T06:43:41;60.42;;;24.58;;
10761;SDS011;5433;50.862;4.320;2022-11-20T06:46:08;57.95;;;23.00;;
10761;SDS011;5433;50.862;4.320;2022-11-20T06:48:34;57.35;;;23.48;;
10761;SDS011;5433;50.862;4.320;2022-11-20T06:51:02;56.72;;;23.85;;
10761;SDS011;5433;50.862;4.320;2022-11-20T06:53:28;52.88;;;23.05;;
10761;SDS011;5433;50.862;4.320;2022-11-20T06:55:55;57.28;;;22.90;;
10761;SDS011;5433;50.862;4.320;2022-11-20T06:58:22;53.38;;;23.05;;
10761;SDS011;5433;50.862;4.320;2022-11-20T07:00:48;53.15;;;23.27;;
10761;SDS011;5433;50.862;4.320;2022-11-20T07:03:14;59.92;;;24.13;;
10761;SDS011;5433;50.862;4.320;2022-11-20T07:05:40;52.92;;;22.52;;
10761;SDS011;5433;50.862;4.320;2022-11-20T07:08:06;51.85;;;23.55;;
10761;SDS011;5433;50.862;4.320;2022-11-20T07:10:32;53.38;;;23.33;;
10761;SDS011;5433;50.862;4.320;2022-11-20T07:12:58;56.88;;;24.20;;
10761;SDS011;5433;50.862;4.320;2022-11-20T07:15:24;51.05;;;22.23;;
10761;SDS011;5433;50.862;4.320;2022-11-20T07:17:51;51.47;;;23.00;;
10761;SDS011;5433;50.862;4.320;2022-11-20T07:20:17;49.35;;;21.90;;
10761;SDS011;5433;50.862;4.320;2022-11-20T07:22:43;49.85;;;21.70;;
10761;SDS011;5433;50.862;4.320;2022-11-20T07:25:09;44.88;;;20.85;;
10761;SDS011;5433;50.862;4.320;2022-11-20T07:27:35;49.13;;;21.58;;
10761;SDS011;5433;50.862;4.320;2022-11-20T07:30:05;49.45;;;21.55;;
10761;SDS011;5433;50.862;4.320;2022-11-20T07:32:31;49.78;;;22.02;;
10761;SDS011;5433;50.862;4.320;2022-11-20T07:34:57;49.17;;;22.23;;
10761;SDS011;5433;50.862;4.320;2022-11-20T07:37:23;49.60;;;21.48;;
10761;SDS011;5433;50.862;4.320;2022-11-20T07:39:49;45.67;;;21.10;;
10761;SDS011;5433;50.862;4.320;2022-11-20T07:42:18;44.17;;;21.25;;
10761;SDS011;5433;50.862;4.320;2022-11-20T07:44:44;50.33;;;22.00;;
10761;SDS011;5433;50.862;4.320;2022-11-20T07:53:01;48.17;;;20.08;;
10761;SDS011;5433;50.862;4.320;2022-11-20T07:55:28;47.42;;;20.70;;
10761;SDS011;5433;50.862;4.320;2022-11-20T08:00:58;45.63;;;19.88;;
10761;SDS011;5433;50.862;4.320;2022-11-20T08:03:24;43.33;;;20.23;;
10761;SDS011;5433;50.862;4.320;2022-11-20T08:05:50;46.60;;;20.17;;
10761;SDS011;5433;50.862;4.320;2022-11-20T08:08:16;50.80;;;20.58;;
10761;SDS011;5433;50.862;4.320;2022-11-20T08:10:45;48.03;;;19.48;;
10761;SDS011;5433;50.862;4.320;2022-11-20T08:13:11;45.53;;;18.92;;
10761;SDS011;5433;50.862;4.320;2022-11-20T08:15:55;44.72;;;19.48;;
10761;SDS011;5433;50.862;4.320;2022-11-20T08:18:21;47.22;;;19.45;;
10761;SDS011;5433;50.862;4.320;2022-11-20T08:20:48;49.15;;;19.77;;
10761;SDS011;5433;50.862;4.320;2022-11-20T08:23:13;48.55;;;19.65;;
10761;SDS011;5433;50.862;4.320;2022-11-20T08:25:39;45.80;;;18.98;;
10761;SDS011;5433;50.862;4.320;2022-11-20T08:28:07;47.78;;;20.02;;
10761;SDS011;5433;50.862;4.320;2022-11-20T08:30:33;49.33;;;19.98;;
10761;SDS011;5433;50.862;4.320;2022-11-20T08:33:00;45.45;;;19.67;;
10761;SDS011;5433;50.862;4.320;2022-11-20T08:35:26;46.70;;;19.95;;
10761;SDS011;5433;50.862;4.320;2022-11-20T08:37:53;41.67;;;19.35;;
10761;SDS011;5433;50.862;4.320;2022-11-20T08:40:19;45.95;;;20.33;;
10761;SDS011;5433;50.862;4.320;2022-11-20T08:42:48;47.35;;;20.25;;
10761;SDS011;5433;50.862;4.320;2022-11-20T08:45:18;47.67;;;19.52;;
10761;SDS011;5433;50.862;4.320;2022-11-20T08:47:44;50.78;;;20.55;;
10761;SDS011;5433;50.862;4.320;2022-11-20T08:50:11;46.10;;;19.73;;
10761;SDS011;5433;50.862;4.320;2022-11-20T08:52:38;48.70;;;20.05;;
10761;SDS011;5433;50.862;4.320;2022-11-20T08:55:04;47.00;;;19.83;;
10761;SDS011;5433;50.862;4.320;2022-11-20T08:57:34;49.55;;;21.30;;
10761;SDS011;5433;50.862;4.320;2022-11-20T09:00:02;48.05;;;20.92;;
10761;SDS011;5433;50.862;4.320;2022-11-20T09:02:28;47.58;;;20.48;;
10761;SDS011;5433;50.862;4.320;2022-11-20T09:04:54;54.15;;;22.10;;
10761;SDS011;5433;50.862;4.320;2022-11-20T09:07:21;47.80;;;22.02;;
10761;SDS011;5433;50.862;4.320;2022-11-20T09:09:47;44.05;;;19.52;;
10761;SDS011;5433;50.862;4.320;2022-11-20T09:12:13;42.00;;;19.73;;
10761;SDS011;5433;50.862;4.320;2022-11-20T09:14:39;47.42;;;20.60;;
10761;SDS011;5433;50.862;4.320;2022-11-20T09:17:05;45.70;;;20.58;;
10761;SDS011;5433;50.862;4.320;2022-11-20T09:19:32;47.38;;;19.17;;
10761;SDS011;5433;50.862;4.320;2022-11-20T09:21:58;44.85;;;19.73;;
10761;SDS011;5433;50.862;4.320;2022-11-20T09:24:25;42.40;;;20.17;;
10761;SDS011;5433;50.862;4.320;2022-11-20T09:26:51;42.80;;;19.70;;
10761;SDS011;5433;50.862;4.320;2022-11-20T09:29:17;44.15;;;19.98;;
10761;SDS011;5433;50.862;4.320;2022-11-20T09:31:43;42.03;;;19.33;;
10761;SDS011;5433;50.862;4.320;2022-11-20T09:34:09;42.92;;;19.38;;
10761;SDS011;5433;50.862;4.320;2022-11-20T09:36:35;36.03;;;18.65;;
10761;SDS011;5433;50.862;4.320;2022-11-20T09:39:01;37.05;;;18.73;;
10761;SDS011;5433;50.862;4.320;2022-11-20T09:41:34;38.22;;;18.80;;
10761;SDS011;5433;50.862;4.320;2022-11-20T09:44:05;41.78;;;18.98;;
10761;SDS011;5433;50.862;4.320;2022-11-20T09:46:37;36.72;;;18.27;;
10761;SDS011;5433;50.862;4.320;2022-11-20T09:51:43;35.85;;;17.48;;
10761;SDS011;5433;50.862;4.320;2022-11-20T09:54:16;39.25;;;18.13;;
10761;SDS011;5433;50.862;4.320;2022-11-20T09:59:39;36.10;;;17.58;;
10761;SDS011;5433;50.862;4.320;2022-11-20T10:02:12;38.17;;;17.63;;
10761;SDS011;5433;50.862;4.320;2022-11-20T10:04:43;31.15;;;16.60;;
10761;SDS011;5433;50.862;4.320;2022-11-20T10:07:15;29.17;;;15.90;;
10761;SDS011;5433;50.862;4.320;2022-11-20T10:09:49;28.45;;;15.13;;
10761;SDS011;5433;50.862;4.320;2022-11-20T10:19:55;24.20;;;13.98;;
10761;SDS011;5433;50.862;4.320;2022-11-20T10:22:42;26.13;;;14.52;;
10761;SDS011;5433;50.862;4.320;2022-11-20T10:27:40;21.58;;;13.00;;
10761;SDS011;5433;50.862;4.320;2022-11-20T10:32:54;16.42;;;10.02;;
10761;SDS011;5433;50.862;4.320;2022-11-20T10:37:49;15.63;;;9.57;;
10761;SDS011;5433;50.862;4.320;2022-11-20T10:40:27;15.15;;;8.35;;
10761;SDS011;5433;50.862;4.320;2022-11-20T10:46:08;12.43;;;7.30;;
10761;SDS011;5433;50.862;4.320;2022-11-20T10:48:34;10.98;;;6.78;;
10761;SDS011;5433;50.862;4.320;2022-11-20T10:51:11;13.00;;;6.35;;
10761;SDS011;5433;50.862;4.320;2022-11-20T10:56:05;9.77;;;6.05;;
10761;SDS011;5433;50.862;4.320;2022-11-20T10:58:38;10.70;;;6.20;;
10761;SDS011;5433;50.862;4.320;2022-11-20T11:01:19;10.65;;;5.47;;
10761;SDS011;5433;50.862;4.320;2022-11-20T11:03:50;8.55;;;5.07;;
10761;SDS011;5433;50.862;4.320;2022-11-20T11:06:22;9.10;;;4.82;;
10761;SDS011;5433;50.862;4.320;2022-11-20T11:08:49;9.07;;;4.90;;
10761;SDS011;5433;50.862;4.320;2022-11-20T11:11:23;9.93;;;5.60;;
10761;SDS011;5433;50.862;4.320;2022-11-20T11:13:49;8.20;;;4.97;;
10761;SDS011;5433;50.862;4.320;2022-11-20T11:16:18;8.90;;;5.22;;
10761;SDS011;5433;50.862;4.320;2022-11-20T11:18:45;10.23;;;5.15;;
10761;SDS011;5433;50.862;4.320;2022-11-20T11:21:11;7.85;;;5.00;;
10761;SDS011;5433;50.862;4.320;2022-11-20T11:23:38;9.15;;;5.05;;
10761;SDS011;5433;50.862;4.320;2022-11-20T11:26:05;11.52;;;5.10;;
10761;SDS011;5433;50.862;4.320;2022-11-20T11:28:32;10.75;;;4.90;;
10761;SDS011;5433;50.862;4.320;2022-11-20T11:30:58;8.85;;;4.35;;
10761;SDS011;5433;50.862;4.320;2022-11-20T11:33:25;8.48;;;4.60;;
10761;SDS011;5433;50.862;4.320;2022-11-20T11:35:52;8.23;;;3.95;;
10761;SDS011;5433;50.862;4.320;2022-11-20T11:38:23;8.63;;;4.18;;
10761;SDS011;5433;50.862;4.320;2022-11-20T11:40:53;6.55;;;3.90;;
10761;SDS011;5433;50.862;4.320;2022-11-20T11:43:20;7.32;;;4.45;;
10761;SDS011;5433;50.862;4.320;2022-11-20T11:48:54;7.32;;;4.32;;
10761;SDS011;5433;50.862;4.320;2022-11-20T11:51:21;6.45;;;4.10;;
10761;SDS011;5433;50.862;4.320;2022-11-20T11:53:47;6.30;;;4.00;;
10761;SDS011;5433;50.862;4.320;2022-11-20T11:56:13;7.80;;;3.95;;
10761;SDS011;5433;50.862;4.320;2022-11-20T11:58:43;7.20;;;4.60;;
10761;SDS011;5433;50.862;4.320;2022-11-20T12:03:39;7.82;;;4.18;;
10761;SDS011;5433;50.862;4.320;2022-11-20T12:06:15;6.97;;;4.47;;
10761;SDS011;5433;50.862;4.320;2022-11-20T12:08:49;6.63;;;3.80;;
10761;SDS011;5433;50.862;4.320;2022-11-20T12:11:18;6.35;;;3.92;;
10761;SDS011;5433;50.862;4.320;2022-11-20T12:14:03;6.13;;;3.65;;
10761;SDS011;5433;50.862;4.320;2022-11-20T12:16:30;7.35;;;3.65;;
10761;SDS011;5433;50.862;4.320;2022-11-20T12:18:59;9.73;;;4.05;;
10761;SDS011;5433;50.862;4.320;2022-11-20T12:21:31;9.05;;;3.63;;
10761;SDS011;5433;50.862;4.320;2022-11-20T12:29:00;7.40;;;3.67;;
10761;SDS011;5433;50.862;4.320;2022-11-20T12:34:00;6.45;;;3.63;;
10761;SDS011;5433;50.862;4.320;2022-11-20T12:36:43;7.18;;;3.95;;
10761;SDS011;5433;50.862;4.320;2022-11-20T12:41:46;7.70;;;3.38;;
10761;SDS011;5433;50.862;4.320;2022-11-20T12:55:46;6.88;;;3.50;;
10761;SDS011;5433;50.862;4.320;2022-11-20T12:58:26;9.20;;;3.60;;
10761;SDS011;5433;50.862;4.320;2022-11-20T13:01:42;7.30;;;3.53;;
10761;SDS011;5433;50.862;4.320;2022-11-20T13:04:05;7.10;;;3.10;;
10761;SDS011;5433;50.862;4.320;2022-11-20T13:06:33;4.82;;;3.28;;
10761;SDS011;5433;50.862;4.320;2022-11-20T13:08:59;8.18;;;3.78;;
10761;SDS011;5433;50.862;4.320;2022-11-20T13:18:53;6.15;;;3.33;;
10761;SDS011;5433;50.862;4.320;2022-11-20T13:21:23;8.65;;;3.50;;
10761;SDS011;5433;50.862;4.320;2022-11-20T13:26:44;7.38;;;3.50;;
10761;SDS011;5433;50.862;4.320;2022-11-20T13:29:11;5.28;;;3.70;;
10761;SDS011;5433;50.862;4.320;2022-11-20T13:31:42;7.10;;;3.72;;
10761;SDS011;5433;50.862;4.320;2022-11-20T13:34:09;5.32;;;3.90;;
10761;SDS011;5433;50.862;4.320;2022-11-20T13:36:38;5.45;;;3.78;;
10761;SDS011;5433;50.862;4.320;2022-11-20T13:39:23;6.25;;;4.00;;
10761;SDS011;5433;50.862;4.320;2022-11-20T13:41:53;6.88;;;4.25;;
10761;SDS011;5433;50.862;4.320;2022-11-20T13:44:24;5.90;;;3.47;;
10761;SDS011;5433;50.862;4.320;2022-11-20T13:46:51;4.55;;;3.63;;
10761;SDS011;5433;50.862;4.320;2022-11-20T13:49:18;4.53;;;3.83;;
10761;SDS011;5433;50.862;4.320;2022-11-20T13:51:46;6.00;;;3.85;;
10761;SDS011;5433;50.862;4.320;2022-11-20T13:54:25;6.13;;;3.83;;
10761;SDS011;5433;50.862;4.320;2022-11-20T14:02:09;5.45;;;3.70;;
10761;SDS011;5433;50.862;4.320;2022-11-20T14:04:41;3.92;;;3.50;;
10761;SDS011;5433;50.862;4.320;2022-11-20T14:07:08;5.00;;;3.67;;
10761;SDS011;5433;50.862;4.320;2022-11-20T14:09:34;4.45;;;3.47;;
10761;SDS011;5433;50.862;4.320;2022-11-20T14:12:01;9.57;;;8.00;;
10761;SDS011;5433;50.862;4.320;2022-11-20T14:14:28;5.05;;;3.50;;
10761;SDS011;5433;50.862;4.320;2022-11-20T14:19:52;4.88;;;3.70;;
10761;SDS011;5433;50.862;4.320;2022-11-20T14:22:20;4.07;;;3.30;;
10761;SDS011;5433;50.862;4.320;2022-11-20T14:25:32;3.40;;;3.00;;
10761;SDS011;5433;50.862;4.320;2022-11-20T14:27:36;4.00;;;3.58;;
10761;SDS011;5433;50.862;4.320;2022-11-20T14:30:02;4.18;;;3.30;;
10761;SDS011;5433;50.862;4.320;2022-11-20T14:32:29;4.35;;;3.63;;
10761;SDS011;5433;50.862;4.320;2022-11-20T14:34:57;4.60;;;3.65;;
10761;SDS011;5433;50.862;4.320;2022-11-20T14:37:24;3.70;;;3.10;;
10761;SDS011;5433;50.862;4.320;2022-11-20T14:39:53;4.43;;;3.33;;
10761;SDS011;5433;50.862;4.320;2022-11-20T14:42:23;5.28;;;3.38;;
10761;SDS011;5433;50.862;4.320;2022-11-20T14:44:50;4.22;;;3.60;;
10761;SDS011;5433;50.862;4.320;2022-11-20T14:47:17;5.07;;;3.42;;
10761;SDS011;5433;50.862;4.320;2022-11-20T14:49:44;5.47;;;3.80;;
10761;SDS011;5433;50.862;4.320;2022-11-20T14:52:13;4.85;;;3.53;;
10761;SDS011;5433;50.862;4.320;2022-11-20T14:54:43;4.80;;;3.30;;
10761;SDS011;5433;50.862;4.320;2022-11-20T14:57:18;4.20;;;3.03;;
10761;SDS011;5433;50.862;4.320;2022-11-20T14:59:45;3.97;;;3.13;;
10761;SDS011;5433;50.862;4.320;2022-11-20T15:02:11;4.25;;;3.08;;
10761;SDS011;5433;50.862;4.320;2022-11-20T15:04:47;4.93;;;3.13;;
10761;SDS011;5433;50.862;4.320;2022-11-20T15:07:23;4.00;;;3.60;;
10761;SDS011;5433;50.862;4.320;2022-11-20T15:09:59;4.72;;;3.50;;
10761;SDS011;5433;50.862;4.320;2022-11-20T15:12:25;5.97;;;3.88;;
10761;SDS011;5433;50.862;4.320;2022-11-20T15:14:51;4.55;;;3.55;;
10761;SDS011;5433;50.862;4.320;2022-11-20T15:17:17;4.25;;;3.28;;
10761;SDS011;5433;50.862;4.320;2022-11-20T15:19:43;5.22;;;3.70;;
10761;SDS011;5433;50.862;4.320;2022-11-20T15:22:10;6.03;;;4.00;;
10761;SDS011;5433;50.862;4.320;2022-11-20T15:24:41;4.55;;;3.70;;
10761;SDS011;5433;50.862;4.320;2022-11-20T15:27:07;5.53;;;3.83;;
10761;SDS011;5433;50.862;4.320;2022-11-20T15:29:34;6.65;;;4.00;;
10761;SDS011;5433;50.862;4.320;2022-11-20T15:32:00;5.90;;;4.15;;
10761;SDS011;5433;50.862;4.320;2022-11-20T15:34:26;7.18;;;4.30;;
10761;SDS011;5433;50.862;4.320;2022-11-20T15:36:52;5.05;;;3.97;;
10761;SDS011;5433;50.862;4.320;2022-11-20T15:39:19;6.05;;;4.10;;
10761;SDS011;5433;50.862;4.320;2022-11-20T15:41:45;8.05;;;4.28;;
10761;SDS011;5433;50.862;4.320;2022-11-20T15:44:11;6.40;;;4.30;;
10761;SDS011;5433;50.862;4.320;2022-11-20T15:46:39;6.20;;;4.60;;
10761;SDS011;5433;50.862;4.320;2022-11-20T15:49:14;9.73;;;4.78;;
10761;SDS011;5433;50.862;4.320;2022-11-20T15:51:44;7.55;;;4.50;;
10761;SDS011;5433;50.862;4.320;2022-11-20T15:56:37;7.97;;;3.83;;
10761;SDS011;5433;50.862;4.320;2022-11-20T15:59:03;10.57;;;4.57;;
10761;SDS011;5433;50.862;4.320;2022-11-20T16:01:29;11.05;;;4.40;;
10761;SDS011;5433;50.862;4.320;2022-11-20T16:03:59;8.60;;;4.18;;
10761;SDS011;5433;50.862;4.320;2022-11-20T16:06:25;9.73;;;3.70;;
10761;SDS011;5433;50.862;4.320;2022-11-20T16:08:51;11.68;;;3.30;;
10761;SDS011;5433;50.862;4.320;2022-11-20T16:11:17;10.05;;;3.42;;
10761;SDS011;5433;50.862;4.320;2022-11-20T16:13:43;10.07;;;3.92;;
10761;SDS011;5433;50.862;4.320;2022-11-20T16:16:29;10.18;;;3.13;;
10761;SDS011;5433;50.862;4.320;2022-11-20T16:18:56;7.78;;;3.35;;